Time;durP1;ratioP1;P1;durP2;ratioP2;P2;SDS_P1;SDS_P2;PMS_P1;PMS_P2;Temp;Humidity;BMP_temperature;BMP_pressure;BME280_temperature;BME280_humidity;BME280_pressure;Samples;Min_cycle;Max_cycle;Signal;HPM_P1;HPM_P2
2024/01/14 00:01:25;;;;;;;122.68;36.38;;;;;;;1.76;100.00;101769.16;5269641;28;20032;-71
2024/01/14 00:03:56;;;;;;;125.63;33.80;;;;;;;1.78;100.00;101760.16;5269488;28;20023;-72
2024/01/14 00:06:26;;;;;;;122.22;34.95;;;;;;;1.77;100.00;101758.47;5269295;28;20040;-72
2024/01/14 00:08:57;;;;;;;123.38;34.42;;;;;;;1.66;100.00;101762.69;5269659;28;20532;-71
2024/01/14 00:11:27;;;;;;;139.13;37.55;;;;;;;1.69;100.00;101759.84;5267913;28;20028;-71
2024/01/14 00:13:57;;;;;;;118.32;34.95;;;;;;;1.73;100.00;101748.16;5268033;28;20077;-71
2024/01/14 00:16:33;;;;;;;120.65;34.05;;;;;;;1.70;100.00;101745.66;5269460;28;20594;-71
2024/01/14 00:19:05;;;;;;;110.18;34.38;;;;;;;1.76;100.00;101754.13;5270219;28;20023;-71
2024/01/14 00:21:36;;;;;;;121.20;35.22;;;;;;;1.79;100.00;101747.78;5268591;28;20038;-72
2024/01/14 00:24:06;;;;;;;124.97;35.92;;;;;;;1.83;100.00;101753.78;5268144;28;20036;-71
2024/01/14 00:26:37;;;;;;;110.22;34.17;;;;;;;1.89;100.00;101764.84;5268721;28;20035;-71
2024/01/14 00:29:07;;;;;;;119.38;34.90;;;;;;;1.91;100.00;101762.09;5268564;28;20058;-72
2024/01/14 00:31:38;;;;;;;118.72;33.67;;;;;;;1.89;100.00;101748.97;5268287;28;20039;-72
2024/01/14 00:34:08;;;;;;;120.82;32.75;;;;;;;1.84;100.00;101744.88;5269571;28;20392;-71
2024/01/14 00:36:39;;;;;;;118.25;33.97;;;;;;;1.80;100.00;101739.75;5268468;28;20123;-72
2024/01/14 00:39:10;;;;;;;121.57;34.50;;;;;;;1.87;100.00;101744.72;5269453;28;20016;-71
2024/01/14 00:41:41;;;;;;;119.13;34.95;;;;;;;1.86;100.00;101737.69;5269430;28;20031;-71
2024/01/14 00:44:11;;;;;;;112.47;32.20;;;;;;;1.83;100.00;101744.03;5268460;28;20469;-72
2024/01/14 00:46:42;;;;;;;106.63;30.55;;;;;;;1.80;100.00;101737.09;5268976;28;20492;-72
2024/01/14 00:49:12;;;;;;;126.65;33.25;;;;;;;1.76;100.00;101738.25;5269046;28;20020;-71
2024/01/14 00:51:43;;;;;;;104.40;30.10;;;;;;;1.78;100.00;101731.06;5270030;28;20028;-71
2024/01/14 00:54:13;;;;;;;109.90;31.70;;;;;;;1.78;100.00;101730.22;5268227;28;20032;-71
2024/01/14 00:56:44;;;;;;;114.50;34.65;;;;;;;1.84;100.00;101721.91;5268841;28;20020;-71
2024/01/14 00:59:14;;;;;;;105.32;32.42;;;;;;;1.82;100.00;101726.47;5267382;28;20052;-71
2024/01/14 01:01:45;;;;;;;109.95;32.08;;;;;;;1.86;100.00;101722.72;5269661;28;20028;-71
2024/01/14 01:04:15;;;;;;;107.85;32.47;;;;;;;1.91;100.00;101722.41;5267917;28;20083;-71
2024/01/14 01:06:46;;;;;;;116.22;30.38;;;;;;;1.86;100.00;101719.19;5269182;28;20036;-71
2024/01/14 01:09:16;;;;;;;111.18;33.20;;;;;;;1.88;100.00;101709.38;5268131;28;20048;-71
2024/01/14 01:11:47;;;;;;;109.35;30.83;;;;;;;1.86;100.00;101711.25;5269878;28;20123;-71
2024/01/14 01:14:17;;;;;;;105.75;31.10;;;;;;;1.85;100.00;101710.38;5259854;28;20111;-72
2024/01/14 01:16:48;;;;;;;111.30;32.58;;;;;;;1.83;100.00;101706.16;5267908;28;20546;-71
2024/01/14 01:19:18;;;;;;;115.65;33.47;;;;;;;1.79;100.00;101701.00;5266776;28;20028;-72
2024/01/14 01:21:49;;;;;;;111.65;34.00;;;;;;;1.75;100.00;101694.19;5269468;28;21354;-71
2024/01/14 01:24:19;;;;;;;109.10;30.92;;;;;;;1.69;100.00;101694.56;5271421;28;20119;-71
2024/01/14 01:26:49;;;;;;;113.93;30.85;;;;;;;1.73;100.00;101693.44;5272775;28;20111;-71
2024/01/14 01:29:20;;;;;;;105.90;30.85;;;;;;;1.83;100.00;101690.28;5272022;28;20024;-72
2024/01/14 01:31:50;;;;;;;107.38;31.02;;;;;;;1.74;100.00;101684.56;5270821;28;20101;-72
2024/01/14 01:34:21;;;;;;;118.60;31.80;;;;;;;1.82;100.00;101681.47;5271245;28;20059;-73
2024/01/14 01:36:51;;;;;;;109.47;29.98;;;;;;;1.84;100.00;101681.38;5273070;28;20027;-73
2024/01/14 01:39:22;;;;;;;110.10;33.10;;;;;;;1.88;100.00;101686.41;5272063;28;20019;-72
2024/01/14 01:41:52;;;;;;;105.20;31.83;;;;;;;1.85;100.00;101678.63;5273138;28;20614;-72
2024/01/14 01:44:24;;;;;;;103.55;30.02;;;;;;;1.86;100.00;101685.66;5271447;28;20100;-72
2024/01/14 01:46:56;;;;;;;99.47;31.02;;;;;;;1.87;100.00;101679.41;5273120;28;20007;-72
2024/01/14 01:49:27;;;;;;;107.18;29.02;;;;;;;1.85;100.00;101683.94;5271404;28;20437;-72
2024/01/14 01:52:00;;;;;;;100.50;29.42;;;;;;;1.91;100.00;101688.00;5272638;28;20527;-73
2024/01/14 01:54:33;;;;;;;90.05;28.42;;;;;;;1.90;100.00;101683.66;5270260;28;20044;-73
2024/01/14 01:57:04;;;;;;;102.13;28.15;;;;;;;1.86;100.00;101679.50;5272596;28;20031;-72
2024/01/14 01:59:35;;;;;;;98.07;31.65;;;;;;;1.80;100.00;101678.91;5272354;28;20576;-73
2024/01/14 02:02:06;;;;;;;88.68;27.40;;;;;;;1.81;100.00;101662.13;5271249;28;20015;-74
2024/01/14 02:04:36;;;;;;;95.63;29.27;;;;;;;1.81;100.00;101656.81;5269665;28;20467;-73
2024/01/14 02:07:08;;;;;;;102.82;29.48;;;;;;;1.69;100.00;101646.94;5271248;28;20384;-72
2024/01/14 02:09:38;;;;;;;110.82;30.75;;;;;;;1.65;100.00;101642.75;5272908;28;20024;-73
2024/01/14 02:12:09;;;;;;;102.93;28.70;;;;;;;1.60;100.00;101631.59;5271717;28;20399;-72
2024/01/14 02:14:40;;;;;;;91.22;29.35;;;;;;;1.65;100.00;101642.75;5272663;28;20032;-72
2024/01/14 02:17:10;;;;;;;105.88;29.88;;;;;;;1.67;100.00;101634.75;5270880;28;20078;-73
2024/01/14 02:19:41;;;;;;;104.40;30.55;;;;;;;1.64;100.00;101635.78;5272671;28;20020;-72
2024/01/14 02:22:17;;;;;;;98.00;27.83;;;;;;;1.59;100.00;101635.19;5270991;28;20707;-72
2024/01/14 02:24:48;;;;;;;99.80;29.98;;;;;;;1.60;100.00;101630.75;5272092;28;20039;-74
2024/01/14 02:27:19;;;;;;;104.50;32.25;;;;;;;1.57;100.00;101629.16;5270554;28;20491;-72
2024/01/14 02:29:53;;;;;;;95.47;30.35;;;;;;;1.49;100.00;101626.09;5271418;28;20024;-73
2024/01/14 02:32:23;;;;;;;108.10;31.33;;;;;;;1.43;100.00;101619.38;5270726;28;20020;-72
2024/01/14 02:34:54;;;;;;;103.20;29.20;;;;;;;1.37;100.00;101597.72;5270169;28;20030;-73
2024/01/14 02:37:25;;;;;;;107.25;31.83;;;;;;;1.38;100.00;101605.56;5271223;28;20550;-72
2024/01/14 02:39:55;;;;;;;108.15;28.73;;;;;;;1.41;100.00;101608.03;5272738;28;20018;-73
2024/01/14 02:42:26;;;;;;;111.82;29.67;;;;;;;1.48;100.00;101608.53;5270493;28;20048;-72
2024/01/14 02:44:56;;;;;;;114.38;29.38;;;;;;;1.52;100.00;101610.06;5272825;28;20031;-72
2024/01/14 02:47:27;;;;;;;104.93;29.00;;;;;;;1.53;100.00;101609.09;5269866;28;20039;-75
2024/01/14 02:49:58;;;;;;;107.95;31.33;;;;;;;1.60;100.00;101610.44;5272099;28;20586;-73
2024/01/14 02:52:29;;;;;;;95.50;27.88;;;;;;;1.59;100.00;101602.59;5270345;28;20106;-73
2024/01/14 02:54:59;;;;;;;102.88;29.23;;;;;;;1.64;100.00;101603.19;5272609;28;20031;-73
2024/01/14 02:57:30;;;;;;;109.03;30.45;;;;;;;1.61;100.00;101604.25;5270917;28;20089;-72
2024/01/14 03:00:00;;;;;;;92.03;28.08;;;;;;;1.68;100.00;101608.22;5272037;28;20031;-72
2024/01/14 03:02:31;;;;;;;111.22;30.98;;;;;;;1.71;100.00;101607.19;5270635;28;20024;-73
2024/01/14 03:05:02;;;;;;;107.85;29.02;;;;;;;1.71;100.00;101609.84;5272082;28;20062;-72
2024/01/14 03:07:32;;;;;;;107.03;29.92;;;;;;;1.71;100.00;101605.41;5270720;28;20397;-72
2024/01/14 03:10:11;;;;;;;94.70;29.00;;;;;;;1.60;100.00;101597.22;5267175;28;20065;-73
2024/01/14 03:12:42;;;;;;;98.05;29.33;;;;;;;1.56;100.00;101593.06;5270015;28;20020;-73
2024/01/14 03:15:13;;;;;;;99.53;27.02;;;;;;;1.60;100.00;101591.06;5270350;28;20024;-72
2024/01/14 03:17:48;;;;;;;99.30;28.98;;;;;;;1.59;100.00;101594.66;5272268;28;20392;-72
2024/01/14 03:20:19;;;;;;;99.43;29.48;;;;;;;1.66;100.00;101593.38;5270269;28;20027;-74
2024/01/14 03:22:50;;;;;;;107.18;27.30;;;;;;;1.61;100.00;101590.13;5272158;28;20038;-72
2024/01/14 03:25:21;;;;;;;89.28;25.05;;;;;;;1.67;100.00;101595.09;5281151;28;20031;-72
2024/01/14 03:27:51;;;;;;;94.60;27.48;;;;;;;1.67;100.00;101593.28;5270727;28;20020;-74
2024/01/14 03:30:22;;;;;;;97.15;27.15;;;;;;;1.62;100.00;101592.72;5280386;28;20019;-73
2024/01/14 03:32:53;;;;;;;86.30;27.58;;;;;;;1.66;100.00;101588.09;5284283;28;20481;-72
2024/01/14 03:35:23;;;;;;;92.38;28.42;;;;;;;1.58;100.00;101577.97;5268285;28;20118;-74
2024/01/14 03:37:54;;;;;;;94.72;27.58;;;;;;;1.59;100.00;101577.00;5279925;28;20093;-73
2024/01/14 03:40:25;;;;;;;88.32;26.05;;;;;;;1.63;100.00;101567.94;5280512;28;20397;-72
2024/01/14 03:42:56;;;;;;;94.03;26.75;;;;;;;1.58;100.00;101575.31;5276862;28;20020;-72
2024/01/14 03:45:26;;;;;;;91.28;28.17;;;;;;;1.54;100.00;101569.34;5281005;28;20027;-72
2024/01/14 03:47:57;;;;;;;107.35;29.60;;;;;;;1.60;100.00;101568.13;5285191;28;20024;-72
2024/01/14 03:50:27;;;;;;;91.13;28.63;;;;;;;1.61;100.00;101558.38;5285632;28;20027;-72
2024/01/14 03:52:58;;;;;;;95.80;27.92;;;;;;;1.48;100.00;101551.19;5284322;28;20033;-74
2024/01/14 03:55:28;;;;;;;86.80;27.08;;;;;;;1.52;100.00;101542.16;5285567;28;20103;-73
2024/01/14 03:57:59;;;;;;;94.32;26.50;;;;;;;1.50;100.00;101541.38;5283617;28;20076;-73
2024/01/14 04:00:29;;;;;;;99.07;30.30;;;;;;;1.52;100.00;101534.22;5281109;28;20032;-73
2024/01/14 04:03:00;;;;;;;94.43;27.13;;;;;;;1.51;100.00;101521.94;5272189;28;20058;-72
2024/01/14 04:05:30;;;;;;;82.95;24.60;;;;;;;1.47;100.00;101535.44;5275417;28;20107;-73
2024/01/14 04:08:01;;;;;;;88.70;28.13;;;;;;;1.49;100.00;101529.09;5282271;28;20080;-73
2024/01/14 04:10:31;;;;;;;98.82;28.05;;;;;;;1.51;100.00;101515.81;5285071;28;20662;-73
2024/01/14 04:13:02;;;;;;;98.00;26.90;;;;;;;1.45;100.00;101519.63;5278173;28;20027;-74
2024/01/14 04:15:33;;;;;;;99.63;25.55;;;;;;;1.41;100.00;101515.50;5279350;28;20443;-72
2024/01/14 04:18:03;;;;;;;91.82;25.15;;;;;;;1.51;100.00;101521.09;5284175;27;20051;-72
2024/01/14 04:20:34;;;;;;;87.68;25.30;;;;;;;1.51;100.00;101513.16;5275982;28;20027;-72
2024/01/14 04:23:05;;;;;;;94.03;28.58;;;;;;;1.48;100.00;101516.81;5265982;28;20035;-73
2024/01/14 04:25:35;;;;;;;94.68;27.20;;;;;;;1.53;100.00;101522.69;5279170;28;20055;-73
2024/01/14 04:28:06;;;;;;;85.60;26.38;;;;;;;1.58;100.00;101522.41;5280458;28;20034;-73
2024/01/14 04:30:36;;;;;;;89.05;27.23;;;;;;;1.55;100.00;101519.94;5278985;28;20471;-74
2024/01/14 04:33:07;;;;;;;94.80;27.40;;;;;;;1.51;100.00;101516.66;5274779;28;20415;-72
2024/01/14 04:35:38;;;;;;;100.80;26.15;;;;;;;1.53;100.00;101514.75;5276688;28;20027;-73
2024/01/14 04:38:08;;;;;;;96.07;27.45;;;;;;;1.45;100.00;101511.69;5275387;28;20032;-72
2024/01/14 04:40:39;;;;;;;87.72;27.15;;;;;;;1.46;100.00;101507.28;5281008;28;20024;-73
2024/01/14 04:43:11;;;;;;;82.65;24.73;;;;;;;1.50;100.00;101503.50;5277221;28;20473;-73
2024/01/14 04:45:42;;;;;;;87.00;24.65;;;;;;;1.48;100.00;101508.03;5278558;28;20076;-72
2024/01/14 04:48:15;;;;;;;77.35;25.10;;;;;;;1.48;100.00;101503.59;5280077;28;20090;-74
2024/01/14 04:50:46;;;;;;;87.22;26.58;;;;;;;1.47;100.00;101501.06;5276632;28;20024;-72
2024/01/14 04:53:17;;;;;;;84.82;26.88;;;;;;;1.48;100.00;101502.75;5279929;28;20080;-74
2024/01/14 04:55:48;;;;;;;86.45;24.23;;;;;;;1.49;100.00;101497.38;5272457;28;20028;-72
2024/01/14 04:58:18;;;;;;;96.00;26.98;;;;;;;1.52;100.00;101486.63;5273868;28;20031;-73
2024/01/14 05:00:49;;;;;;;90.90;25.67;;;;;;;1.58;100.00;101487.19;5276578;28;20104;-72
2024/01/14 05:03:21;;;;;;;84.68;23.35;;;;;;;1.54;100.00;101490.00;5277631;28;20073;-73
2024/01/14 05:05:53;;;;;;;76.55;23.58;;;;;;;1.57;100.00;101496.91;5273091;28;20053;-73
2024/01/14 05:08:23;;;;;;;83.50;25.85;;;;;;;1.58;100.00;101484.53;5269388;28;20032;-73
2024/01/14 05:10:53;;;;;;;83.93;25.48;;;;;;;1.61;100.00;101489.63;5274084;28;20038;-72
2024/01/14 05:13:24;;;;;;;92.68;25.52;;;;;;;1.60;100.00;101483.50;5279726;28;20562;-72
2024/01/14 05:15:54;;;;;;;84.40;24.45;;;;;;;1.64;100.00;101490.28;5281820;28;20128;-72
2024/01/14 05:18:25;;;;;;;91.93;24.98;;;;;;;1.60;100.00;101477.34;5278670;28;20032;-72
2024/01/14 05:20:56;;;;;;;91.78;25.00;;;;;;;1.62;100.00;101475.47;5281469;28;20031;-73
2024/01/14 05:23:26;;;;;;;91.60;25.77;;;;;;;1.61;100.00;101471.13;5278534;28;20024;-73
2024/01/14 05:25:57;;;;;;;79.20;23.73;;;;;;;1.57;100.00;101467.81;5276013;27;20527;-73
2024/01/14 05:28:27;;;;;;;80.35;24.33;;;;;;;1.55;100.00;101469.69;5283600;28;20032;-74
2024/01/14 05:30:58;;;;;;;74.50;23.23;;;;;;;1.60;100.00;101461.47;5273947;28;20546;-73
2024/01/14 05:33:28;;;;;;;79.40;24.23;;;;;;;1.62;100.00;101471.03;5282536;28;20474;-72
2024/01/14 05:36:01;;;;;;;84.97;22.80;;;;;;;1.62;100.00;101460.47;5265968;28;20577;-72
2024/01/14 05:38:31;;;;;;;86.95;25.15;;;;;;;1.57;100.00;101465.19;5276428;28;20035;-72
2024/01/14 05:41:02;;;;;;;75.82;24.38;;;;;;;1.61;100.00;101458.78;5273873;28;20027;-74
2024/01/14 05:43:32;;;;;;;88.25;25.52;;;;;;;1.60;100.00;101456.19;5272437;28;20035;-72
2024/01/14 05:46:03;;;;;;;93.78;25.88;;;;;;;1.62;100.00;101452.53;5270994;28;20027;-72
2024/01/14 05:48:33;;;;;;;90.07;24.67;;;;;;;1.60;100.00;101449.09;5280687;28;20115;-72
2024/01/14 05:51:04;;;;;;;77.25;24.63;;;;;;;1.58;100.00;101452.81;5279689;28;20019;-72
2024/01/14 05:53:35;;;;;;;77.13;22.25;;;;;;;1.62;100.00;101452.53;5278577;28;20035;-72
2024/01/14 05:56:05;;;;;;;81.70;24.63;;;;;;;1.59;100.00;101452.69;5274653;28;20062;-72
2024/01/14 05:58:38;;;;;;;82.50;23.55;;;;;;;1.59;100.00;101451.84;5279111;28;20797;-72
2024/01/14 06:01:08;;;;;;;78.13;23.23;;;;;;;1.61;100.00;101444.66;5280703;28;20073;-75
2024/01/14 06:03:39;;;;;;;79.43;23.30;;;;;;;1.53;100.00;101442.50;5276964;28;20024;-72
2024/01/14 06:06:10;;;;;;;102.40;31.25;;;;;;;1.55;100.00;101448.53;5280777;28;20039;-72
2024/01/14 06:08:41;;;;;;;79.53;23.77;;;;;;;1.44;100.00;101438.63;5279709;28;20043;-73
2024/01/14 06:11:13;;;;;;;81.47;22.92;;;;;;;1.44;100.00;101445.69;5255378;28;20413;-72
2024/01/14 06:13:43;;;;;;;85.25;24.20;;;;;;;1.50;100.00;101432.09;5268721;28;20087;-72
2024/01/14 06:16:14;;;;;;;86.63;22.83;;;;;;;1.53;100.00;101430.13;5270474;28;20508;-72
2024/01/14 06:18:45;;;;;;;69.78;23.35;;;;;;;1.47;100.00;101422.56;5279655;28;20070;-73
2024/01/14 06:21:15;;;;;;;84.82;23.38;;;;;;;1.31;100.00;101410.41;5263811;28;20043;-72
2024/01/14 06:23:46;;;;;;;83.45;24.13;;;;;;;1.28;100.00;101409.63;5266287;28;20051;-73
2024/01/14 06:26:17;;;;;;;77.07;24.42;;;;;;;1.27;100.00;101407.94;5272020;28;20040;-72
2024/01/14 06:28:47;;;;;;;85.82;23.80;;;;;;;1.36;100.00;101403.03;5270319;28;20055;-73
2024/01/14 06:31:18;;;;;;;85.70;24.30;;;;;;;1.19;100.00;101396.09;5275202;28;20042;-72
2024/01/14 06:33:48;;;;;;;89.25;24.45;;;;;;;1.26;100.00;101386.88;5273095;28;20115;-72
2024/01/14 06:36:19;;;;;;;86.22;25.00;;;;;;;1.20;100.00;101379.31;5270969;28;20382;-72
2024/01/14 06:38:49;;;;;;;93.07;25.70;;;;;;;1.07;100.00;101378.34;5273353;28;20035;-73
2024/01/14 06:41:23;;;;;;;92.03;24.08;;;;;;;1.12;100.00;101382.41;5278355;28;20415;-72
2024/01/14 06:43:54;;;;;;;118.30;38.63;;;;;;;1.25;100.00;101398.38;5283183;28;20048;-72
2024/01/14 06:46:24;;;;;;;111.30;35.63;;;;;;;1.32;100.00;101404.16;5275198;28;20055;-72
2024/01/14 06:48:55;;;;;;;85.93;24.35;;;;;;;1.24;100.00;101381.66;5273652;28;20031;-72
2024/01/14 06:51:25;;;;;;;94.28;26.30;;;;;;;1.19;100.00;101377.59;5276769;28;20500;-75
2024/01/14 06:53:56;;;;;;;91.50;26.33;;;;;;;1.28;100.00;101371.75;5271546;28;20038;-73
2024/01/14 06:56:26;;;;;;;100.55;25.55;;;;;;;1.30;100.00;101369.88;5270852;28;20024;-72
2024/01/14 06:58:56;;;;;;;85.90;22.50;;;;;;;1.12;100.00;101356.00;5277289;28;20024;-72
2024/01/14 07:01:27;;;;;;;88.57;25.42;;;;;;;1.17;100.00;101361.84;5278853;28;20035;-72
2024/01/14 07:03:57;;;;;;;82.35;22.50;;;;;;;1.21;100.00;101362.53;5270738;28;20031;-74
2024/01/14 07:06:28;;;;;;;89.18;24.25;;;;;;;1.14;100.00;101358.53;5270953;28;20032;-72
2024/01/14 07:08:58;;;;;;;85.43;24.08;;;;;;;1.08;100.00;101365.03;5270177;28;20034;-73
2024/01/14 07:11:29;;;;;;;78.95;23.17;;;;;;;1.17;100.00;101356.56;5279313;28;20023;-72
2024/01/14 07:13:59;;;;;;;86.10;24.92;;;;;;;1.28;100.00;101366.47;5270971;28;20115;-72
2024/01/14 07:16:30;;;;;;;101.82;41.60;;;;;;;1.30;100.00;101369.88;5279813;28;20073;-73
2024/01/14 07:19:00;;;;;;;95.00;26.67;;;;;;;1.30;100.00;101375.16;5275475;28;20035;-72
2024/01/14 07:21:31;;;;;;;88.32;23.77;;;;;;;1.27;100.00;101372.72;5270667;28;20032;-72
2024/01/14 07:24:01;;;;;;;97.53;27.38;;;;;;;1.23;100.00;101373.84;5276174;28;20050;-72
2024/01/14 07:26:32;;;;;;;87.57;24.80;;;;;;;1.14;100.00;101363.81;5282293;28;20027;-74
2024/01/14 07:29:03;;;;;;;91.53;25.17;;;;;;;1.15;100.00;101371.66;5269500;27;20035;-72
2024/01/14 07:31:33;;;;;;;92.28;26.63;;;;;;;1.22;100.00;101378.28;5274972;28;20395;-72
2024/01/14 07:34:04;;;;;;;80.97;25.60;;;;;;;1.29;100.00;101376.94;5280205;28;20086;-74
2024/01/14 07:36:34;;;;;;;85.63;24.70;;;;;;;1.26;100.00;101376.31;5278289;28;20034;-73
2024/01/14 07:39:05;;;;;;;86.05;25.48;;;;;;;1.32;100.00;101375.94;5270651;28;20027;-73
2024/01/14 07:41:35;;;;;;;85.03;24.65;;;;;;;1.25;100.00;101367.50;5274269;28;20028;-73
2024/01/14 07:44:06;;;;;;;86.75;24.27;;;;;;;1.22;100.00;101367.72;5275639;28;20101;-73
2024/01/14 07:46:36;;;;;;;87.97;23.77;;;;;;;1.22;100.00;101367.72;5282182;28;20056;-75
2024/01/14 07:49:07;;;;;;;85.13;26.13;;;;;;;1.27;100.00;101373.56;5270061;28;20036;-72
2024/01/14 07:51:37;;;;;;;92.20;27.35;;;;;;;1.23;100.00;101366.75;5282498;27;20034;-72
2024/01/14 07:54:08;;;;;;;91.82;24.75;;;;;;;1.23;100.00;101374.69;5274119;28;20027;-72
2024/01/14 07:56:38;;;;;;;88.60;25.05;;;;;;;1.14;100.00;101369.94;5274744;28;20553;-72
2024/01/14 07:59:09;;;;;;;98.53;25.25;;;;;;;1.25;100.00;101364.84;5273869;27;20042;-73
2024/01/14 08:01:39;;;;;;;86.00;23.95;;;;;;;1.31;100.00;101370.75;5270619;28;20111;-72
2024/01/14 08:04:10;;;;;;;91.00;27.17;;;;;;;1.28;100.00;101362.03;5268234;28;20102;-72
2024/01/14 08:06:40;;;;;;;84.38;22.80;;;;;;;1.26;100.00;101361.28;5274952;28;20032;-72
2024/01/14 08:09:11;;;;;;;90.65;24.60;;;;;;;1.20;100.00;101360.78;5271345;28;20028;-73
2024/01/14 08:11:42;;;;;;;89.95;26.02;;;;;;;1.26;100.00;101355.16;5274918;28;20028;-71
2024/01/14 08:14:13;;;;;;;85.97;24.48;;;;;;;1.22;100.00;101351.84;5268856;27;20036;-71
2024/01/14 08:16:44;;;;;;;85.90;24.55;;;;;;;1.28;100.00;101348.81;5266764;28;20073;-71
2024/01/14 08:19:14;;;;;;;87.75;25.40;;;;;;;1.25;100.00;101348.16;5268064;28;20031;-71
2024/01/14 08:21:45;;;;;;;82.72;23.27;;;;;;;1.33;100.00;101352.97;5274878;28;20443;-71
2024/01/14 08:24:15;;;;;;;91.03;24.73;;;;;;;1.45;100.00;101352.22;5267537;27;20020;-71
2024/01/14 08:26:46;;;;;;;81.80;27.13;;;;;;;1.41;100.00;101356.84;5279705;28;20024;-71
2024/01/14 08:29:16;;;;;;;78.13;24.55;;;;;;;1.45;100.00;101357.50;5269148;28;20588;-71
2024/01/14 08:31:47;;;;;;;88.78;29.88;;;;;;;1.47;100.00;101358.28;5274320;28;20473;-71
2024/01/14 08:34:17;;;;;;;70.70;23.30;;;;;;;1.50;100.00;101358.06;5272074;28;20023;-71
2024/01/14 08:36:48;;;;;;;87.95;24.70;;;;;;;1.42;100.00;101355.06;5276579;28;20034;-71
2024/01/14 08:39:18;;;;;;;83.65;23.75;;;;;;;1.44;100.00;101353.16;5266840;28;20103;-71
2024/01/14 08:41:49;;;;;;;85.15;23.88;;;;;;;1.47;100.00;101350.34;5274516;28;20035;-71
2024/01/14 08:44:19;;;;;;;94.28;27.23;;;;;;;1.51;100.00;101352.69;5266102;28;20031;-71
2024/01/14 08:46:50;;;;;;;82.75;22.88;;;;;;;1.40;100.00;101349.00;5272229;28;20040;-71
2024/01/14 08:49:21;;;;;;;70.15;22.92;;;;;;;1.49;100.00;101346.63;5271309;28;20106;-71
2024/01/14 08:51:52;;;;;;;74.07;24.42;;;;;;;1.50;100.00;101350.97;5270815;28;20106;-71
2024/01/14 08:54:22;;;;;;;71.75;23.63;;;;;;;1.54;100.00;101347.19;5263984;28;20141;-71
2024/01/14 08:56:53;;;;;;;78.82;26.05;;;;;;;1.53;100.00;101347.31;5270680;28;20112;-71
2024/01/14 08:59:23;;;;;;;82.88;26.58;;;;;;;1.57;100.00;101347.97;5274230;28;20097;-71
2024/01/14 09:01:54;;;;;;;80.05;25.10;;;;;;;1.64;100.00;101352.75;5274802;28;20039;-71
2024/01/14 09:04:24;;;;;;;79.30;22.50;;;;;;;1.65;100.00;101346.53;5270089;28;20061;-71
2024/01/14 09:06:55;;;;;;;68.13;22.20;;;;;;;1.62;100.00;101357.31;5271262;28;20027;-71
2024/01/14 09:09:25;;;;;;;73.40;24.42;;;;;;;1.63;100.00;101352.88;5270333;28;20032;-71
2024/01/14 09:11:56;;;;;;;65.72;22.92;;;;;;;1.68;100.00;101343.69;5272417;28;20031;-71
2024/01/14 09:14:26;;;;;;;69.65;23.63;;;;;;;1.72;100.00;101350.50;5270487;28;20591;-71
2024/01/14 09:16:57;;;;;;;70.72;22.55;;;;;;;1.72;100.00;101341.72;5274079;28;20035;-71
2024/01/14 09:19:28;;;;;;;68.97;24.87;;;;;;;1.71;100.00;101348.81;5271037;28;20020;-71
2024/01/14 09:21:59;;;;;;;76.80;23.45;;;;;;;1.71;100.00;101346.16;5270682;28;20281;-71
2024/01/14 09:24:29;;;;;;;74.80;20.45;;;;;;;1.72;100.00;101353.16;5266932;28;20036;-71
2024/01/14 09:27:00;;;;;;;68.47;21.98;;;;;;;1.67;100.00;101347.28;5276023;28;20030;-71
2024/01/14 09:29:30;;;;;;;72.00;22.33;;;;;;;1.74;100.00;101348.59;5267867;28;20382;-71
2024/01/14 09:32:01;;;;;;;72.78;22.67;;;;;;;1.67;100.00;101347.28;5270334;28;20024;-71
2024/01/14 09:34:31;;;;;;;68.05;21.80;;;;;;;1.73;100.00;101340.75;5274026;28;20104;-71
2024/01/14 09:37:02;;;;;;;73.10;22.02;;;;;;;1.76;100.00;101330.00;5277085;28;20050;-72
2024/01/14 09:39:32;;;;;;;64.40;20.52;;;;;;;1.68;100.00;101333.13;5270240;28;20031;-71
2024/01/14 09:42:17;;;;;;;74.10;23.60;;;;;;;1.64;100.00;101328.97;5271149;28;20389;-71
2024/01/14 09:44:54;;;;;;;69.95;22.05;;;;;;;1.63;100.00;101339.66;5272283;28;20026;-71
2024/01/14 09:47:25;;;;;;;71.07;21.45;;;;;;;1.55;100.00;101324.25;5277596;28;20109;-72
2024/01/14 09:49:58;;;;;;;73.63;21.02;;;;;;;1.57;100.00;101330.31;5274361;28;20145;-71
2024/01/14 09:52:31;;;;;;;82.20;25.23;;;;;;;1.64;100.00;101328.97;5275186;28;20032;-71
2024/01/14 09:55:01;;;;;;;73.10;21.25;;;;;;;1.61;100.00;101321.25;5271852;28;20486;-71
2024/01/14 09:57:34;;;;;;;75.43;24.58;;;;;;;1.67;100.00;101330.56;5275751;28;20031;-71
2024/01/14 10:00:05;;;;;;;79.80;22.13;;;;;;;1.69;100.00;101321.56;5279731;27;20024;-71
2024/01/14 10:02:36;;;;;;;70.25;22.83;;;;;;;1.62;100.00;101317.63;5277967;28;20141;-71
2024/01/14 10:05:07;;;;;;;71.22;20.85;;;;;;;1.65;100.00;101332.44;5276646;28;20099;-71
2024/01/14 10:07:39;;;;;;;69.32;19.23;;;;;;;1.66;100.00;101316.50;5272861;28;20473;-71
2024/01/14 10:10:09;;;;;;;71.43;22.58;;;;;;;1.64;100.00;101315.72;5275205;28;20012;-71
2024/01/14 10:12:41;;;;;;;61.33;19.63;;;;;;;1.68;100.00;101309.31;5278252;28;20464;-71
2024/01/14 10:15:11;;;;;;;66.40;21.10;;;;;;;1.61;100.00;101294.78;5275057;28;20023;-71
2024/01/14 10:17:44;;;;;;;68.28;24.10;;;;;;;1.69;100.00;101303.06;5276485;28;20429;-71
2024/01/14 10:20:18;;;;;;;69.75;22.80;;;;;;;1.75;100.00;101286.78;5274017;28;20036;-71
2024/01/14 10:22:50;;;;;;;64.45;21.67;;;;;;;1.84;100.00;101287.16;5270848;28;20027;-71
2024/01/14 10:25:20;;;;;;;61.30;20.08;;;;;;;1.91;100.00;101285.81;5273991;28;20107;-71
2024/01/14 10:27:51;;;;;;;61.30;19.83;;;;;;;1.86;100.00;101286.13;5268871;28;20098;-71
2024/01/14 10:30:23;;;;;;;64.60;18.98;;;;;;;1.81;100.00;101281.13;5271780;28;20028;-71
2024/01/14 10:32:53;;;;;;;59.65;20.00;;;;;;;1.84;100.00;101274.78;5274913;28;20019;-71
2024/01/14 10:35:24;;;;;;;63.95;19.52;;;;;;;1.87;100.00;101273.75;5278724;28;20020;-71
2024/01/14 10:37:56;;;;;;;72.50;20.60;;;;;;;1.87;100.00;101273.75;5273976;28;20392;-71
2024/01/14 10:40:27;;;;;;;69.55;22.50;;;;;;;1.70;100.00;101264.22;5275456;28;20024;-72
2024/01/14 10:42:57;;;;;;;54.72;18.90;;;;;;;1.87;100.00;101266.66;5276169;28;20028;-71
2024/01/14 10:45:28;;;;;;;60.55;19.50;;;;;;;1.81;100.00;101267.91;5273309;28;20039;-71
2024/01/14 10:48:04;;;;;;;61.03;18.83;;;;;;;1.90;100.00;101250.56;5273182;28;20035;-71
2024/01/14 10:50:36;;;;;;;90.13;21.35;;;;;;;1.77;100.00;101254.97;5273739;28;20020;-71
2024/01/14 10:53:11;;;;;;;61.95;18.25;;;;;;;1.90;100.00;101239.97;5274493;28;20031;-71
2024/01/14 10:55:52;;;;;;;56.75;19.60;;;;;;;1.85;100.00;101242.06;5271619;28;20048;-71
2024/01/14 10:58:26;;;;;;;51.58;18.85;;;;;;;1.91;100.00;101228.47;5257569;28;20028;-71
2024/01/14 11:00:59;;;;;;;52.38;17.88;;;;;;;1.91;100.00;101227.59;5264757;28;20031;-71
2024/01/14 11:03:33;;;;;;;59.53;19.58;;;;;;;1.80;100.00;101223.84;5270117;28;20542;-71
2024/01/14 11:06:05;;;;;;;49.33;17.35;;;;;;;1.88;100.00;101220.72;5269089;28;20051;-71
2024/01/14 11:08:37;;;;;;;56.28;16.90;;;;;;;1.93;100.00;101215.13;5271671;28;20103;-71
2024/01/14 11:11:08;;;;;;;57.72;19.55;;;;;;;1.82;100.00;101213.19;5270548;28;20024;-71
2024/01/14 11:13:51;;;;;;;53.15;17.15;;;;;;;1.80;100.00;101207.97;5269993;28;20492;-71
2024/01/14 11:16:29;;;;;;;53.00;17.88;;;;;;;1.95;100.00;101206.13;5267883;28;20123;-71
2024/01/14 11:19:05;;;;;;;45.63;16.05;;;;;;;1.88;100.00;101196.91;5274708;28;20055;-71
2024/01/14 11:21:56;;;;;;;49.13;16.95;;;;;;;1.94;100.00;101191.19;5266130;28;20023;-71
2024/01/14 11:24:27;;;;;;;55.05;17.55;;;;;;;1.96;100.00;101184.03;5267119;28;20066;-71